Terminal Aerodrome Forecast
Issued by NWS

Home | Current Version | Previous Version | Text Only | Print | Product List | Glossary On
Versions: 1 2 3 4 5 6 7 8 9 10 11 12 13 14 15 16 17 18 19 20
000
FTUS45 KBOU 241820 AAA
TAFAPA
TAF AMD
KAPA 241820Z 2418/2518 21008KT P6SM -SHRA BKN090
     FM241900 21008KT P6SM VCSH SCT060 BKN090
     FM242200 15015G25KT P6SM -SHRA BKN060
     FM250200 12012KT P6SM SCT080 BKN120
     FM250600 18008KT P6SM SCT120 BKN200
     FM251500 VRB05KT P6SM SCT120=

USA.gov is the U.S. government's official web portal to all federal, state and local government web resources and services.